createdAt,value
2019-02-06T00:02:06.206Z,24.53
2019-02-06T00:04:32.630Z,27.50
2019-02-06T00:06:59.134Z,23.63
2019-02-06T00:09:25.803Z,24.23
2019-02-06T00:11:52.172Z,24.80
2019-02-06T00:14:18.505Z,23.50
2019-02-06T00:16:44.952Z,25.63
2019-02-06T00:19:11.628Z,24.37
2019-02-06T00:21:38.277Z,24.00
2019-02-06T00:24:04.722Z,25.23
2019-02-06T00:26:31.333Z,25.43
2019-02-06T00:28:58.012Z,25.50
2019-02-06T00:31:24.339Z,26.10
2019-02-06T00:33:50.657Z,23.97
2019-02-06T00:36:18.261Z,26.20
2019-02-06T00:38:44.585Z,25.70
2019-02-06T00:41:10.958Z,24.10
2019-02-06T00:43:37.544Z,24.87
2019-02-06T00:46:04.509Z,25.77
2019-02-06T00:48:31.202Z,25.20
2019-02-06T00:50:57.827Z,26.37
2019-02-06T00:53:24.157Z,23.70
2019-02-06T00:55:50.487Z,26.63
2019-02-06T00:58:17.084Z,25.57
2019-02-06T01:00:43.709Z,27.07
2019-02-06T01:03:10.324Z,29.90
2019-02-06T01:05:38.683Z,25.80
2019-02-06T01:08:06.158Z,26.17
2019-02-06T01:10:33.494Z,25.73
2019-02-06T01:13:00.028Z,26.90
2019-02-06T01:15:26.611Z,23.87
2019-02-06T01:17:53.616Z,26.10
2019-02-06T01:20:19.953Z,26.70
2019-02-06T01:22:46.289Z,24.40
2019-02-06T01:25:15.518Z,26.77
2019-02-06T01:27:42.302Z,27.40
2019-02-06T01:30:21.619Z,26.83
2019-02-06T01:32:48.238Z,27.63
2019-02-06T01:35:15.327Z,26.97
2019-02-06T01:37:41.682Z,26.23
2019-02-06T01:40:12.447Z,26.30
2019-02-06T01:42:39.044Z,24.27
2019-02-06T01:45:12.484Z,26.20
2019-02-06T01:47:39.147Z,26.87
2019-02-06T01:50:10.238Z,25.03
2019-02-06T01:52:37.221Z,23.60
2019-02-06T01:55:07.632Z,22.77
2019-02-06T01:57:34.204Z,24.20
2019-02-06T02:00:00.798Z,18.70
2019-02-06T02:02:27.389Z,18.30
2019-02-06T02:04:53.984Z,18.60
2019-02-06T02:07:20.583Z,14.87
2019-02-06T02:09:47.312Z,14.73
2019-02-06T02:12:13.637Z,14.37
2019-02-06T02:14:39.975Z,13.97
2019-02-06T02:17:06.571Z,17.57
2019-02-06T02:19:32.879Z,15.20
2019-02-06T02:21:59.191Z,15.17
2019-02-06T02:24:25.505Z,20.23
2019-02-06T02:26:51.851Z,20.00
2019-02-06T02:29:18.458Z,23.60
2019-02-06T02:31:45.072Z,24.23
2019-02-06T02:34:11.408Z,21.80
2019-02-06T02:36:37.964Z,22.97
2019-02-06T02:39:05.604Z,24.40
2019-02-06T02:41:34.096Z,22.50
2019-02-06T02:44:00.442Z,25.03
2019-02-06T02:46:26.767Z,23.70
2019-02-06T02:48:53.682Z,23.73
2019-02-06T02:51:19.991Z,24.97
2019-02-06T02:53:46.399Z,23.93
2019-02-06T02:56:12.728Z,24.37
2019-02-06T02:58:39.071Z,24.03
2019-02-06T03:01:13.196Z,26.00
2019-02-06T03:03:41.509Z,25.30
2019-02-06T03:06:08.139Z,26.47
2019-02-06T03:08:34.738Z,27.07
2019-02-06T03:11:02.424Z,24.43
2019-02-06T03:13:28.745Z,25.90
2019-02-06T03:15:55.088Z,23.93
2019-02-06T03:18:21.449Z,23.87
2019-02-06T03:20:47.788Z,24.00
2019-02-06T03:23:14.374Z,24.47
2019-02-06T03:25:41.019Z,26.33
2019-02-06T03:28:07.376Z,24.97
2019-02-06T03:30:33.931Z,24.60
2019-02-06T03:33:00.281Z,25.20
2019-02-06T03:35:26.832Z,26.57
2019-02-06T03:37:53.456Z,24.63
2019-02-06T03:40:20.033Z,21.33
2019-02-06T03:42:46.372Z,19.60
2019-02-06T03:45:13.289Z,15.97
2019-02-06T03:47:39.863Z,16.67
2019-02-06T03:50:16.965Z,16.33
2019-02-06T03:52:43.751Z,15.60
2019-02-06T03:55:11.674Z,15.40
2019-02-06T03:57:38.205Z,15.10
2019-02-06T04:00:14.546Z,14.00
2019-02-06T04:02:40.872Z,14.60
2019-02-06T04:05:09.868Z,11.80
2019-02-06T04:07:36.246Z,14.87
2019-02-06T04:10:08.171Z,12.07
2019-02-06T04:12:34.649Z,13.60
2019-02-06T04:15:01.226Z,12.40
2019-02-06T04:17:27.906Z,13.50
2019-02-06T04:19:54.200Z,13.67
2019-02-06T04:22:20.550Z,14.10
2019-02-06T04:24:47.137Z,13.40
2019-02-06T04:27:14.528Z,13.40
2019-02-06T04:29:40.861Z,13.20
2019-02-06T04:32:07.270Z,14.73
2019-02-06T04:34:33.894Z,13.27
2019-02-06T04:37:06.601Z,14.23
2019-02-06T04:39:28.926Z,13.17
2019-02-06T04:41:55.474Z,13.30
2019-02-06T04:44:22.098Z,15.30
2019-02-06T04:46:49.448Z,13.90
2019-02-06T04:49:16.053Z,14.63
2019-02-06T04:51:42.403Z,14.13
2019-02-06T04:54:08.805Z,13.10
2019-02-06T04:56:35.633Z,11.17
2019-02-06T04:59:02.049Z,11.80
2019-02-06T05:01:28.419Z,10.80
2019-02-06T05:03:55.064Z,11.20
2019-02-06T05:06:22.118Z,11.17
2019-02-06T05:08:48.462Z,11.83
2019-02-06T05:11:14.794Z,12.20
2019-02-06T05:13:41.354Z,11.40
2019-02-06T05:16:07.695Z,10.30
2019-02-06T05:18:34.051Z,11.77
2019-02-06T05:21:00.637Z,11.50
2019-02-06T05:23:27.325Z,11.50
2019-02-06T05:25:57.902Z,11.07
2019-02-06T05:28:24.356Z,12.17
2019-02-06T05:30:52.064Z,11.33
2019-02-06T05:33:18.440Z,10.70
2019-02-06T05:35:45.072Z,11.40
2019-02-06T05:38:11.435Z,11.97
2019-02-06T05:40:37.812Z,13.33
2019-02-06T05:43:04.265Z,11.70
2019-02-06T05:45:30.699Z,11.43
2019-02-06T05:47:57.276Z,12.93
2019-02-06T05:50:23.700Z,12.97
2019-02-06T05:52:50.051Z,12.27
2019-02-06T05:55:16.702Z,13.30
2019-02-06T05:57:43.806Z,13.43
2019-02-06T06:00:15.754Z,12.57
2019-02-06T06:02:42.083Z,13.80
2019-02-06T06:05:08.526Z,14.83
2019-02-06T06:07:44.592Z,12.63
2019-02-06T06:10:09.150Z,12.83
2019-02-06T06:12:35.691Z,14.17
2019-02-06T06:15:05.016Z,13.97
2019-02-06T06:17:31.356Z,13.60
2019-02-06T06:19:57.724Z,13.90
2019-02-06T06:22:24.046Z,13.63
2019-02-06T06:24:50.657Z,15.80
2019-02-06T06:27:17.267Z,15.70
2019-02-06T06:29:43.877Z,15.50
2019-02-06T06:32:10.238Z,15.67
2019-02-06T06:34:37.236Z,15.10
2019-02-06T06:37:03.607Z,15.30
2019-02-06T06:39:30.356Z,16.40
2019-02-06T06:41:56.722Z,15.27
2019-02-06T06:44:23.343Z,14.10
2019-02-06T06:46:49.714Z,15.10
2019-02-06T06:49:16.058Z,14.13
2019-02-06T06:51:42.359Z,17.10
2019-02-06T06:54:08.955Z,14.10
2019-02-06T06:56:35.257Z,13.47
2019-02-06T06:59:01.569Z,15.00
2019-02-06T07:01:27.927Z,17.10
2019-02-06T07:03:54.532Z,16.13
2019-02-06T07:06:21.140Z,16.57
2019-02-06T07:08:47.724Z,17.13
2019-02-06T07:11:14.371Z,15.27
2019-02-06T07:13:41.041Z,15.73
2019-02-06T07:16:07.552Z,15.10
2019-02-06T07:18:34.194Z,16.00
2019-02-06T07:21:01.599Z,16.57
2019-02-06T07:23:28.294Z,14.37
2019-02-06T07:25:54.625Z,16.03
2019-02-06T07:28:20.944Z,15.40
2019-02-06T07:30:47.245Z,15.03
2019-02-06T07:33:13.619Z,14.90
2019-02-06T07:35:40.534Z,14.60
2019-02-06T07:38:08.377Z,14.13
2019-02-06T07:40:34.733Z,15.10
2019-02-06T07:43:01.085Z,16.63
2019-02-06T07:45:27.747Z,14.83
2019-02-06T07:47:54.232Z,15.50
2019-02-06T07:50:24.822Z,14.93
2019-02-06T07:52:51.756Z,16.57
2019-02-06T07:55:18.109Z,16.70
2019-02-06T07:57:45.257Z,15.00
2019-02-06T08:00:18.253Z,14.63
2019-02-06T08:02:44.742Z,14.17
2019-02-06T08:05:18.050Z,14.07
2019-02-06T08:07:45.044Z,15.40
2019-02-06T08:10:19.833Z,15.23
2019-02-06T08:12:46.394Z,16.80
2019-02-06T08:15:16.191Z,16.80
2019-02-06T08:17:42.991Z,16.47
2019-02-06T08:20:19.515Z,16.63
2019-02-06T08:22:46.073Z,17.00
2019-02-06T08:25:15.890Z,17.07
2019-02-06T08:27:42.332Z,17.40
2019-02-06T08:30:24.733Z,16.67
2019-02-06T08:32:51.267Z,14.37
2019-02-06T08:35:17.702Z,15.60
2019-02-06T08:37:44.345Z,14.97
2019-02-06T08:40:15.832Z,15.20
2019-02-06T08:42:42.437Z,13.20
2019-02-06T08:45:15.311Z,13.80
2019-02-06T08:47:41.721Z,16.30
2019-02-06T08:50:12.828Z,16.57
2019-02-06T08:52:39.840Z,14.00
2019-02-06T08:55:11.420Z,14.43
2019-02-06T08:57:38.020Z,13.80
2019-02-06T09:00:10.248Z,13.67
2019-02-06T09:02:36.573Z,13.47
2019-02-06T09:05:07.621Z,13.23
2019-02-06T09:07:34.398Z,13.90
2019-02-06T09:10:03.770Z,12.70
2019-02-06T09:12:30.324Z,13.20
2019-02-06T09:14:56.662Z,13.30
2019-02-06T09:17:23.076Z,15.27
2019-02-06T09:19:49.712Z,16.90
2019-02-06T09:22:18.297Z,14.30
2019-02-06T09:24:44.912Z,16.80
2019-02-06T09:27:11.308Z,16.50
2019-02-06T09:29:38.001Z,17.70
2019-02-06T09:32:04.344Z,18.10
2019-02-06T09:34:30.987Z,18.83
2019-02-06T09:36:57.305Z,18.90
2019-02-06T09:39:23.675Z,20.10
2019-02-06T09:41:49.987Z,19.63
2019-02-06T09:44:16.574Z,21.60
2019-02-06T09:46:42.946Z,22.60
2019-02-06T09:49:09.963Z,23.37
2019-02-06T09:51:36.309Z,23.27
2019-02-06T09:54:02.748Z,22.37
2019-02-06T09:56:29.069Z,22.37
2019-02-06T09:58:55.659Z,22.07
2019-02-06T10:01:22.284Z,20.97
2019-02-06T10:03:48.608Z,21.73
2019-02-06T10:06:15.195Z,21.30
2019-02-06T10:08:41.496Z,21.13
2019-02-06T10:11:08.306Z,20.03
2019-02-06T10:13:34.888Z,19.60
2019-02-06T10:16:02.299Z,18.73
2019-02-06T10:18:28.612Z,17.60
2019-02-06T10:20:55.265Z,15.97
2019-02-06T10:23:21.851Z,12.13
2019-02-06T10:25:48.237Z,12.73
2019-02-06T10:28:16.250Z,13.70
2019-02-06T10:30:45.917Z,13.70
2019-02-06T10:33:12.291Z,13.10
2019-02-06T10:35:38.801Z,13.37
2019-02-06T10:38:05.763Z,12.10
2019-02-06T10:40:32.352Z,10.10
2019-02-06T10:42:59.029Z,10.00
2019-02-06T10:45:26.080Z,8.37
2019-02-06T10:47:52.884Z,8.07
2019-02-06T10:50:27.025Z,8.10
2019-02-06T10:52:54.611Z,8.37
2019-02-06T10:55:21.365Z,8.50
2019-02-06T10:57:48.107Z,8.13
2019-02-06T11:00:26.060Z,7.10
2019-02-06T11:02:52.993Z,7.40
2019-02-06T11:05:19.837Z,7.47
2019-02-06T11:07:46.403Z,8.40
2019-02-06T11:10:21.959Z,8.87
2019-02-06T11:12:48.662Z,9.00
2019-02-06T11:15:15.532Z,7.27
2019-02-06T11:17:42.262Z,8.60
2019-02-06T11:20:19.639Z,9.20
2019-02-06T11:22:46.475Z,9.67
2019-02-06T11:25:14.827Z,8.27
2019-02-06T11:27:41.404Z,9.27
2019-02-06T11:30:18.431Z,9.90
2019-02-06T11:32:45.396Z,8.90
2019-02-06T11:35:13.128Z,8.90
2019-02-06T11:37:39.548Z,8.97
2019-02-06T11:40:15.202Z,10.60
2019-02-06T11:42:41.376Z,9.47
2019-02-06T11:45:12.445Z,9.60
2019-02-06T11:47:39.013Z,9.43
2019-02-06T11:50:11.472Z,8.50
2019-02-06T11:52:37.798Z,9.10
2019-02-06T11:55:12.165Z,9.87
2019-02-06T11:57:38.489Z,10.90
2019-02-06T12:00:10.433Z,9.97
2019-02-06T12:02:37.636Z,10.00
2019-02-06T12:05:06.711Z,10.50
2019-02-06T12:07:33.444Z,10.23
2019-02-06T12:10:09.406Z,9.40
2019-02-06T12:12:28.243Z,11.57
2019-02-06T12:14:54.858Z,10.70
2019-02-06T12:17:21.212Z,10.33
2019-02-06T12:19:47.803Z,11.20
2019-02-06T12:22:14.851Z,13.07
2019-02-06T12:24:41.164Z,12.20
2019-02-06T12:27:07.922Z,10.63
2019-02-06T12:29:34.267Z,11.63
2019-02-06T12:32:01.058Z,11.37
2019-02-06T12:34:27.421Z,10.23
2019-02-06T12:36:54.002Z,11.47
2019-02-06T12:39:22.707Z,11.20
2019-02-06T12:41:48.605Z,11.77
2019-02-06T12:44:15.658Z,11.50
2019-02-06T12:46:42.388Z,10.70
2019-02-06T12:49:09.972Z,9.50
2019-02-06T12:51:36.568Z,9.97
2019-02-06T12:54:03.339Z,11.03
2019-02-06T12:56:29.850Z,10.10
2019-02-06T12:58:56.158Z,9.10
2019-02-06T13:01:23.482Z,10.93
2019-02-06T13:03:50.055Z,10.53
2019-02-06T13:06:16.696Z,11.60
2019-02-06T13:08:48.828Z,10.80
2019-02-06T13:11:15.850Z,12.90
2019-02-06T13:14:01.097Z,12.53
2019-02-06T13:16:32.016Z,11.47
2019-02-06T13:19:03.081Z,11.93
2019-02-06T13:21:29.818Z,13.40
2019-02-06T13:23:56.184Z,13.50
2019-02-06T13:26:22.541Z,13.97
2019-02-06T13:28:49.869Z,14.27
2019-02-06T13:31:16.303Z,13.70
2019-02-06T13:33:42.904Z,13.97
2019-02-06T13:36:12.409Z,12.57
2019-02-06T13:38:39.494Z,12.77
2019-02-06T13:41:06.067Z,12.37
2019-02-06T13:43:32.475Z,13.30
2019-02-06T13:45:58.893Z,12.43
2019-02-06T13:48:25.724Z,12.63
2019-02-06T13:50:52.198Z,14.50
2019-02-06T13:53:19.040Z,14.20
2019-02-06T13:55:45.744Z,13.63
2019-02-06T13:58:20.451Z,14.63
2019-02-06T14:00:44.252Z,15.10
2019-02-06T14:03:13.669Z,15.13
2019-02-06T14:05:41.449Z,13.40
2019-02-06T14:08:13.719Z,13.37
2019-02-06T14:10:40.128Z,14.80
2019-02-06T14:13:07.140Z,17.13
2019-02-06T14:15:38.684Z,17.43
2019-02-06T14:18:05.353Z,15.30
2019-02-06T14:20:34.377Z,14.87
2019-02-06T14:23:09.704Z,16.00
2019-02-06T14:25:41.359Z,18.00
2019-02-06T14:28:44.524Z,21.20
2019-02-06T14:31:17.518Z,16.03
2019-02-06T14:34:13.411Z,16.70
2019-02-06T14:36:54.280Z,15.50
2019-02-06T14:39:26.334Z,16.10
2019-02-06T14:42:09.901Z,13.90
2019-02-06T14:45:21.540Z,14.60
2019-02-06T14:48:05.248Z,14.63
2019-02-06T14:50:37.854Z,13.20
2019-02-06T14:53:18.492Z,13.53
2019-02-06T14:55:53.688Z,14.50
2019-02-06T14:58:58.725Z,14.47
2019-02-06T15:01:54.524Z,14.00
2019-02-06T15:05:02.931Z,13.40
2019-02-06T15:07:42.208Z,13.10
2019-02-06T15:10:29.960Z,14.60
2019-02-06T15:13:07.886Z,14.30
2019-02-06T15:16:11.369Z,13.10
2019-02-06T15:18:46.130Z,11.40
2019-02-06T15:21:39.235Z,12.33
2019-02-06T15:24:29.760Z,12.47
2019-02-06T15:27:48.985Z,11.83
2019-02-06T15:30:34.152Z,12.80
2019-02-06T15:33:11.951Z,13.00
2019-02-06T15:35:57.913Z,11.77
2019-02-06T15:38:53.944Z,11.80
2019-02-06T15:41:54.018Z,13.00
2019-02-06T15:44:31.746Z,11.70
2019-02-06T15:47:33.376Z,11.47
2019-02-06T15:50:26.853Z,11.63
2019-02-06T15:53:04.265Z,11.53
2019-02-06T15:55:55.738Z,11.80
2019-02-06T15:58:33.378Z,12.97
2019-02-06T16:01:29.036Z,11.83
2019-02-06T16:04:21.126Z,13.77
2019-02-06T16:07:11.415Z,11.63
2019-02-06T16:09:49.210Z,12.40
2019-02-06T16:12:43.223Z,13.00
2019-02-06T16:15:20.967Z,11.20
2019-02-06T16:18:02.633Z,12.50
2019-02-06T16:20:49.709Z,13.37
2019-02-06T16:23:42.567Z,11.77
2019-02-06T16:26:56.758Z,13.47
2019-02-06T16:29:37.947Z,13.03
2019-02-06T16:32:27.999Z,12.37
2019-02-06T16:35:20.508Z,11.50
2019-02-06T16:38:31.483Z,14.47
2019-02-06T16:41:17.867Z,12.70
2019-02-06T16:43:52.895Z,11.70
2019-02-06T16:46:42.392Z,12.30
2019-02-06T16:49:26.426Z,12.53
2019-02-06T16:52:33.185Z,13.07
2019-02-06T16:55:21.993Z,13.57
2019-02-06T16:58:00.043Z,13.10
2019-02-06T17:01:17.333Z,11.60
2019-02-06T17:03:51.965Z,12.60
2019-02-06T17:06:52.433Z,12.60
2019-02-06T17:09:49.395Z,13.60
2019-02-06T17:12:22.244Z,12.90
2019-02-06T17:15:16.838Z,13.30
2019-02-06T17:18:01.060Z,13.77
2019-02-06T17:20:53.924Z,12.07
2019-02-06T17:23:47.520Z,11.53
2019-02-06T17:26:43.728Z,12.77
2019-02-06T17:29:24.731Z,13.30
2019-02-06T17:32:45.333Z,12.70
2019-02-06T17:35:23.557Z,14.00
2019-02-06T17:38:12.352Z,12.83
2019-02-06T17:41:03.984Z,13.30
2019-02-06T17:43:39.129Z,12.03
2019-02-06T17:46:23.297Z,13.87
2019-02-06T17:49:34.768Z,13.67
2019-02-06T17:52:32.008Z,13.73
2019-02-06T17:55:20.235Z,13.17
2019-02-06T17:57:48.968Z,12.57
2019-02-06T18:00:40.516Z,14.97
2019-02-06T18:03:12.894Z,13.40
2019-02-06T18:05:40.301Z,13.73
2019-02-06T18:08:08.065Z,14.43
2019-02-06T18:10:34.951Z,13.40
2019-02-06T18:13:02.291Z,13.50
2019-02-06T18:15:29.420Z,14.20
2019-02-06T18:17:58.195Z,11.83
2019-02-06T18:20:24.878Z,13.13
2019-02-06T18:22:53.378Z,14.50
2019-02-06T18:25:21.050Z,13.83
2019-02-06T18:27:47.495Z,14.23
2019-02-06T18:30:23.098Z,12.80
2019-02-06T18:32:49.809Z,13.93
2019-02-06T18:35:16.486Z,14.83
2019-02-06T18:37:50.118Z,14.70
2019-02-06T18:40:17.344Z,14.73
2019-02-06T18:42:47.503Z,15.50
2019-02-06T18:45:19.586Z,15.07
2019-02-06T18:47:46.385Z,13.67
2019-02-06T18:50:24.635Z,12.43
2019-02-06T18:52:51.189Z,13.20
2019-02-06T18:55:17.751Z,14.73
2019-02-06T18:57:44.481Z,14.07
2019-02-06T19:00:27.213Z,13.63
2019-02-06T19:02:53.958Z,12.60
2019-02-06T19:05:31.712Z,11.40
2019-02-06T19:08:00.449Z,14.33
2019-02-06T19:10:28.101Z,12.97
2019-02-06T19:12:54.765Z,14.97
2019-02-06T19:15:21.387Z,13.77
2019-02-06T19:17:48.245Z,14.60
2019-02-06T19:20:17.859Z,13.43
2019-02-06T19:22:45.626Z,12.17
2019-02-06T19:25:15.302Z,13.00
2019-02-06T19:27:43.325Z,13.57
2019-02-06T19:30:20.853Z,12.37
2019-02-06T19:32:47.503Z,12.40
2019-02-06T19:35:14.284Z,13.17
2019-02-06T19:37:40.677Z,11.30
2019-02-06T19:40:14.961Z,13.50
2019-02-06T19:42:41.670Z,12.60
2019-02-06T19:45:15.445Z,13.70
2019-02-06T19:47:41.976Z,12.47
2019-02-06T19:50:17.814Z,12.63
2019-02-06T19:52:44.540Z,13.53
2019-02-06T19:55:14.140Z,13.17
2019-02-06T19:57:40.744Z,14.10
2019-02-06T20:00:18.620Z,14.83
2019-02-06T20:02:45.893Z,13.63
2019-02-06T20:05:17.251Z,13.10
2019-02-06T20:07:47.904Z,13.53
2019-02-06T20:10:22.631Z,14.50
2019-02-06T20:12:52.529Z,14.00
2019-02-06T20:15:19.319Z,13.30
2019-02-06T20:17:46.236Z,14.20
2019-02-06T20:20:21.454Z,14.97
2019-02-06T20:22:49.950Z,14.40
2019-02-06T20:25:16.755Z,14.63
2019-02-06T20:27:43.394Z,14.47
2019-02-06T20:30:18.164Z,14.00
2019-02-06T20:32:44.808Z,12.93
2019-02-06T20:35:14.115Z,13.97
2019-02-06T20:37:40.752Z,15.07
2019-02-06T20:40:12.382Z,13.50
2019-02-06T20:42:38.712Z,13.60
2019-02-06T20:45:07.920Z,15.40
2019-02-06T20:47:34.738Z,12.67
2019-02-06T20:50:01.889Z,14.40
2019-02-06T20:52:28.691Z,14.57
2019-02-06T20:54:56.772Z,14.27
2019-02-06T20:57:25.364Z,13.40
2019-02-06T20:59:51.701Z,13.17
2019-02-06T21:02:18.350Z,13.83
2019-02-06T21:04:47.035Z,15.43
2019-02-06T21:07:13.070Z,13.57
2019-02-06T21:09:39.422Z,14.10
2019-02-06T21:12:07.236Z,14.30
2019-02-06T21:14:33.593Z,13.73
2019-02-06T21:17:00.217Z,14.00
2019-02-06T21:19:28.258Z,13.00
2019-02-06T21:21:54.910Z,13.60
2019-02-06T21:24:22.058Z,13.00
2019-02-06T21:26:49.972Z,12.77
2019-02-06T21:29:16.481Z,13.70
2019-02-06T21:31:42.860Z,12.90
2019-02-06T21:34:09.168Z,13.90
2019-02-06T21:36:37.177Z,13.37
2019-02-06T21:39:06.567Z,13.50
2019-02-06T21:41:34.533Z,13.80
2019-02-06T21:44:01.966Z,12.10
2019-02-06T21:46:28.598Z,15.17
2019-02-06T21:48:55.207Z,15.03
2019-02-06T21:51:21.853Z,15.20
2019-02-06T21:53:48.615Z,14.97
2019-02-06T21:56:15.268Z,14.90
2019-02-06T21:58:42.036Z,16.00
2019-02-06T22:01:08.536Z,13.90
2019-02-06T22:03:35.303Z,15.47
2019-02-06T22:06:02.010Z,16.20
2019-02-06T22:08:28.461Z,15.37
2019-02-06T22:10:54.787Z,15.97
2019-02-06T22:13:21.093Z,15.93
2019-02-06T22:15:47.855Z,15.03
2019-02-06T22:18:14.415Z,16.37
2019-02-06T22:20:40.732Z,16.10
2019-02-06T22:23:07.069Z,15.67
2019-02-06T22:25:33.420Z,15.90
2019-02-06T22:27:59.730Z,14.97
2019-02-06T22:30:28.376Z,14.57
2019-02-06T22:32:54.953Z,15.30
2019-02-06T22:35:21.762Z,17.20
2019-02-06T22:37:48.163Z,15.27
2019-02-06T22:40:18.366Z,16.40
2019-02-06T22:42:44.874Z,13.77
2019-02-06T22:45:24.127Z,15.43
2019-02-06T22:47:50.460Z,15.20
2019-02-06T22:50:23.608Z,14.23
2019-02-06T22:52:50.172Z,16.17
2019-02-06T22:55:16.695Z,14.17
2019-02-06T22:57:43.247Z,15.73
2019-02-06T23:00:49.251Z,14.70
2019-02-06T23:03:21.547Z,15.43
2019-02-06T23:05:47.886Z,15.10
2019-02-06T23:08:14.965Z,16.37
2019-02-06T23:10:41.335Z,15.40
2019-02-06T23:13:07.869Z,15.37
2019-02-06T23:15:35.590Z,15.80
2019-02-06T23:18:02.866Z,16.17
2019-02-06T23:20:30.609Z,14.33
2019-02-06T23:22:58.183Z,15.80
2019-02-06T23:25:24.812Z,14.53
2019-02-06T23:27:51.432Z,17.10
2019-02-06T23:30:17.725Z,14.40
2019-02-06T23:32:45.435Z,15.90
2019-02-06T23:35:11.839Z,15.93
2019-02-06T23:37:38.174Z,16.50
2019-02-06T23:40:12.780Z,16.67
2019-02-06T23:42:39.149Z,18.77
2019-02-06T23:45:08.797Z,18.17
2019-02-06T23:47:36.569Z,17.90
2019-02-06T23:50:08.539Z,18.27
2019-02-06T23:52:34.897Z,17.47
2019-02-06T23:55:01.290Z,18.23
2019-02-06T23:57:27.599Z,16.37
2019-02-06T23:59:53.940Z,17.30
